Time;durP1;ratioP1;P1;durP2;ratioP2;P2;SDS_P1;SDS_P2;PMS_P1;PMS_P2;Temp;Humidity;BMP_temperature;BMP_pressure;BME280_temperature;BME280_humidity;BME280_pressure;Samples;Min_cycle;Max_cycle;Signal;HPM_P1;HPM_P2
2022/10/20 00:01:03;;;;;;;9.85;5.80;;;16.80;99.90;;;;;;4878095;29;20100;-74
2022/10/20 00:03:29;;;;;;;7.35;4.95;;;16.80;99.90;;;;;;4878096;29;20104;-75
2022/10/20 00:06:09;;;;;;;6.75;4.90;;;16.80;99.90;;;;;;4877879;29;20065;-75
2022/10/20 00:08:35;;;;;;;9.57;6.00;;;16.70;99.90;;;;;;4878115;29;20036;-74
2022/10/20 00:11:01;;;;;;;10.32;5.28;;;16.70;99.90;;;;;;4878081;29;20025;-75
2022/10/20 00:13:26;;;;;;;6.82;4.47;;;16.70;99.90;;;;;;4861301;29;20025;-74
2022/10/20 00:15:54;;;;;;;7.38;5.38;;;16.70;99.90;;;;;;4877955;29;20077;-75
2022/10/20 00:18:22;;;;;;;11.63;5.80;;;16.60;99.90;;;;;;4878042;29;20112;-75
2022/10/20 00:20:48;;;;;;;10.75;5.50;;;16.70;99.90;;;;;;4861137;29;20029;-74
2022/10/20 00:23:14;;;;;;;9.98;6.03;;;16.70;99.90;;;;;;4861270;29;20031;-74
2022/10/20 00:25:39;;;;;;;8.27;5.35;;;16.70;99.90;;;;;;4877779;29;20420;-75
2022/10/20 00:28:06;;;;;;;8.43;5.25;;;16.70;99.90;;;;;;4877832;29;20025;-75
2022/10/20 00:30:33;;;;;;;6.18;5.30;;;16.70;99.90;;;;;;4877958;29;20029;-75
2022/10/20 00:32:59;;;;;;;10.73;6.47;;;16.70;99.90;;;;;;4877944;29;20097;-75
2022/10/20 00:35:25;;;;;;;8.82;5.88;;;16.60;99.90;;;;;;4877652;29;20029;-75
2022/10/20 00:37:51;;;;;;;11.63;6.13;;;16.60;99.90;;;;;;4861169;29;20424;-74
2022/10/20 00:40:16;;;;;;;8.88;6.63;;;16.60;99.90;;;;;;4877909;29;20033;-74
2022/10/20 00:42:46;;;;;;;9.88;6.63;;;16.60;99.90;;;;;;4877939;29;20036;-75
2022/10/20 00:45:14;;;;;;;8.88;6.28;;;16.60;99.90;;;;;;4877767;29;20124;-74
2022/10/20 00:47:41;;;;;;;15.15;6.95;;;16.60;99.90;;;;;;4877842;29;20033;-74
2022/10/20 00:50:15;;;;;;;11.82;6.93;;;16.60;99.90;;;;;;4879498;29;20028;-75
2022/10/20 00:52:44;;;;;;;12.10;6.63;;;16.60;99.90;;;;;;4881409;29;20036;-75
2022/10/20 00:55:15;;;;;;;11.93;7.05;;;16.60;99.90;;;;;;4897616;29;20021;-75
2022/10/20 00:57:45;;;;;;;11.70;8.03;;;16.60;99.90;;;;;;4900176;29;20028;-75
2022/10/20 01:00:12;;;;;;;15.27;8.20;;;16.60;99.90;;;;;;4900100;29;20063;-75
2022/10/20 01:02:38;;;;;;;13.40;7.82;;;16.60;99.90;;;;;;4900033;29;20040;-75
2022/10/20 01:05:04;;;;;;;14.18;8.45;;;16.60;99.90;;;;;;4882901;29;20033;-74
2022/10/20 01:07:30;;;;;;;14.48;8.05;;;16.60;99.90;;;;;;4883098;29;20060;-75
2022/10/20 01:09:56;;;;;;;15.88;8.68;;;16.50;99.90;;;;;;4899933;29;20024;-75
2022/10/20 01:12:37;;;;;;;13.45;7.78;;;16.50;99.90;;;;;;4899808;29;20108;-75
2022/10/20 01:15:43;;;;;;;12.00;8.38;;;16.50;99.90;;;;;;4899740;29;20033;-74
2022/10/20 01:18:28;;;;;;;15.68;8.50;;;16.50;99.90;;;;;;4895964;29;20407;-75
2022/10/20 01:21:11;;;;;;;20.23;9.13;;;16.50;99.90;;;;;;4899646;29;20112;-75
2022/10/20 01:23:55;;;;;;;13.45;8.32;;;16.50;99.90;;;;;;4882816;29;20044;-74
2022/10/20 01:26:39;;;;;;;15.18;8.73;;;16.60;99.90;;;;;;4899462;29;20110;-75
2022/10/20 01:29:10;;;;;;;16.05;9.23;;;16.60;99.90;;;;;;4899605;29;20081;-75
2022/10/20 01:31:59;;;;;;;17.23;9.13;;;16.50;99.90;;;;;;4899633;29;20033;-75
2022/10/20 01:34:36;;;;;;;14.20;8.55;;;16.50;99.90;;;;;;4899298;29;20440;-74
2022/10/20 01:37:30;;;;;;;16.67;9.02;;;16.50;99.90;;;;;;4899454;29;20028;-74
2022/10/20 01:40:14;;;;;;;17.58;9.18;;;16.50;99.90;;;;;;4882534;29;20033;-75
2022/10/20 01:42:42;;;;;;;12.45;8.23;;;16.50;99.90;;;;;;4899223;29;20145;-74
2022/10/20 01:45:09;;;;;;;14.15;8.45;;;16.50;99.90;;;;;;4882498;29;20428;-75
2022/10/20 01:47:36;;;;;;;12.55;8.77;;;16.50;99.90;;;;;;4899387;29;20025;-75
2022/10/20 01:50:04;;;;;;;13.02;7.85;;;16.50;99.90;;;;;;4899256;29;20032;-74
2022/10/20 01:52:31;;;;;;;15.68;7.97;;;16.50;99.90;;;;;;4899265;29;20414;-75
2022/10/20 01:54:56;;;;;;;13.85;8.73;;;16.50;99.90;;;;;;4899106;29;20039;-74
2022/10/20 01:57:54;;;;;;;10.75;8.10;;;16.60;99.90;;;;;;4898750;29;20032;-74
2022/10/20 02:00:20;;;;;;;15.27;8.55;;;16.60;99.90;;;;;;4863270;29;20033;-75
2022/10/20 02:02:49;;;;;;;13.73;8.00;;;16.50;99.90;;;;;;4880276;29;20496;-75
2022/10/20 02:05:25;;;;;;;18.52;9.18;;;16.50;99.90;;;;;;4880351;29;20029;-74
2022/10/20 02:08:16;;;;;;;14.65;7.80;;;16.50;99.90;;;;;;4880050;29;20085;-75
2022/10/20 02:10:47;;;;;;;13.95;6.90;;;16.50;99.90;;;;;;4867724;29;20051;-75
2022/10/20 02:13:13;;;;;;;10.98;7.10;;;16.50;99.90;;;;;;4880074;29;20237;-75
2022/10/20 02:15:52;;;;;;;11.88;7.00;;;16.50;99.90;;;;;;4879963;29;20032;-74
2022/10/20 02:18:23;;;;;;;10.23;7.15;;;16.50;99.90;;;;;;4880045;29;20523;-74
2022/10/20 02:20:52;;;;;;;11.38;6.55;;;16.50;99.90;;;;;;4879844;29;20040;-75
2022/10/20 02:23:19;;;;;;;11.75;6.75;;;16.50;99.90;;;;;;4879952;29;20345;-74
2022/10/20 02:25:48;;;;;;;16.33;7.28;;;16.40;99.90;;;;;;4879862;29;20025;-75
2022/10/20 02:28:16;;;;;;;8.25;5.90;;;16.40;99.90;;;;;;4879634;29;20074;-75
2022/10/20 02:30:43;;;;;;;11.30;6.07;;;16.40;99.90;;;;;;4879804;29;20029;-75
2022/10/20 02:33:10;;;;;;;10.98;6.25;;;16.40;99.90;;;;;;4879829;29;20058;-75
2022/10/20 02:35:36;;;;;;;7.85;6.05;;;16.40;99.90;;;;;;4879540;29;20021;-74
2022/10/20 02:38:02;;;;;;;9.48;6.05;;;16.40;99.90;;;;;;4879857;29;20039;-75
2022/10/20 02:40:28;;;;;;;9.23;5.80;;;16.30;99.90;;;;;;4862970;29;20044;-75
2022/10/20 02:42:54;;;;;;;9.63;5.28;;;16.30;99.90;;;;;;4879602;29;20033;-75
2022/10/20 02:45:19;;;;;;;7.97;5.55;;;16.20;99.90;;;;;;4879708;29;20089;-75
2022/10/20 02:47:45;;;;;;;8.20;5.60;;;16.20;99.90;;;;;;4891454;29;20390;-74
2022/10/20 02:50:11;;;;;;;7.28;4.95;;;16.20;99.90;;;;;;4898260;29;20025;-75
2022/10/20 02:52:37;;;;;;;6.88;5.07;;;16.20;99.90;;;;;;4881221;29;20474;-75
2022/10/20 02:55:04;;;;;;;8.85;5.57;;;16.20;99.90;;;;;;4898019;29;20029;-74
2022/10/20 02:57:30;;;;;;;8.23;5.00;;;16.20;99.90;;;;;;4897940;29;20059;-75
2022/10/20 02:59:56;;;;;;;6.20;4.60;;;16.20;99.90;;;;;;4881048;29;20056;-75
2022/10/20 03:02:21;;;;;;;6.90;4.43;;;16.20;99.90;;;;;;4897884;29;20061;-75
2022/10/20 03:04:47;;;;;;;5.97;4.43;;;16.20;99.90;;;;;;4897836;29;20021;-74
2022/10/20 03:07:13;;;;;;;4.68;4.15;;;16.20;99.90;;;;;;4897766;29;20052;-74
2022/10/20 03:09:39;;;;;;;6.78;3.75;;;16.20;99.90;;;;;;4897864;29;20502;-74
2022/10/20 03:12:05;;;;;;;5.55;3.78;;;16.20;99.90;;;;;;4880305;29;20029;-74
2022/10/20 03:14:31;;;;;;;7.13;4.22;;;16.10;99.90;;;;;;4880963;29;20028;-74
2022/10/20 03:16:56;;;;;;;6.90;3.95;;;16.10;99.90;;;;;;4897694;29;20033;-75
2022/10/20 03:19:22;;;;;;;5.45;3.67;;;16.10;99.90;;;;;;4881005;29;20025;-75
2022/10/20 03:21:48;;;;;;;4.70;3.55;;;16.10;99.90;;;;;;4880801;29;20147;-75
2022/10/20 03:24:14;;;;;;;6.32;4.00;;;16.00;99.90;;;;;;4897477;29;20028;-75
2022/10/20 03:26:40;;;;;;;5.78;3.42;;;16.00;99.90;;;;;;4897523;29;20487;-75
2022/10/20 03:29:06;;;;;;;9.35;3.80;;;16.00;99.90;;;;;;4897371;29;20032;-74
2022/10/20 03:31:32;;;;;;;5.13;3.95;;;16.00;99.90;;;;;;4897658;29;20040;-74
2022/10/20 03:33:58;;;;;;;3.75;3.45;;;16.00;99.90;;;;;;4880619;29;20028;-75
2022/10/20 03:36:24;;;;;;;5.20;3.45;;;15.90;99.90;;;;;;4880625;29;20043;-75
2022/10/20 03:38:49;;;;;;;4.20;3.42;;;15.90;99.90;;;;;;4880418;29;20448;-74
2022/10/20 03:41:15;;;;;;;6.75;3.97;;;15.90;99.90;;;;;;4897077;29;20036;-74
2022/10/20 03:43:41;;;;;;;4.07;3.10;;;15.90;99.90;;;;;;4897244;29;20028;-74
2022/10/20 03:46:09;;;;;;;6.07;3.47;;;15.90;99.90;;;;;;4897036;29;20410;-74
2022/10/20 03:48:36;;;;;;;4.30;3.53;;;15.90;99.90;;;;;;4896979;29;20032;-75
2022/10/20 03:51:03;;;;;;;4.03;3.17;;;15.90;99.90;;;;;;4897081;29;20028;-74
2022/10/20 03:53:29;;;;;;;4.57;3.30;;;15.90;99.90;;;;;;4897080;29;20028;-75
2022/10/20 03:55:55;;;;;;;5.20;3.55;;;15.90;99.90;;;;;;4896734;29;20079;-74
2022/10/20 03:58:22;;;;;;;7.05;3.42;;;15.90;99.90;;;;;;4897014;29;20064;-74
2022/10/20 04:00:48;;;;;;;7.65;3.40;;;15.90;99.90;;;;;;4896904;29;20025;-74
2022/10/20 04:03:14;;;;;;;6.35;4.00;;;15.80;99.90;;;;;;4896605;29;20037;-75
2022/10/20 04:05:39;;;;;;;6.95;3.20;;;15.90;99.90;;;;;;4895701;29;20080;-74
2022/10/20 04:08:06;;;;;;;9.55;3.72;;;15.90;99.90;;;;;;4896705;29;20052;-74
2022/10/20 04:10:31;;;;;;;8.20;4.20;;;15.90;99.90;;;;;;4896708;29;20029;-74
2022/10/20 04:12:58;;;;;;;3.80;3.45;;;15.80;99.90;;;;;;4896678;29;20031;-74
2022/10/20 04:15:23;;;;;;;6.93;3.30;;;15.80;99.90;;;;;;4896790;29;20590;-75
2022/10/20 04:17:49;;;;;;;5.53;3.22;;;15.80;99.90;;;;;;4896633;29;20032;-74
2022/10/20 04:20:15;;;;;;;4.40;3.63;;;15.80;99.90;;;;;;4879800;29;20060;-74
2022/10/20 04:22:40;;;;;;;5.07;3.83;;;15.80;99.90;;;;;;4879672;29;20531;-75
2022/10/20 04:25:07;;;;;;;5.97;3.90;;;15.70;99.90;;;;;;4879651;29;20025;-74
2022/10/20 04:27:32;;;;;;;6.15;3.47;;;15.70;99.90;;;;;;4879793;29;20128;-74
2022/10/20 04:29:58;;;;;;;5.90;3.70;;;15.70;99.90;;;;;;4879699;29;20112;-74
2022/10/20 04:32:24;;;;;;;5.70;3.17;;;15.70;99.90;;;;;;4897636;29;20588;-75
2022/10/20 04:34:49;;;;;;;5.30;3.83;;;15.70;99.90;;;;;;4897773;29;20080;-74
2022/10/20 04:37:15;;;;;;;8.45;3.97;;;15.80;99.90;;;;;;4897763;29;20060;-74
2022/10/20 04:39:41;;;;;;;5.10;3.92;;;15.80;99.90;;;;;;4897436;29;20028;-74
2022/10/20 04:42:06;;;;;;;4.75;3.53;;;15.70;99.90;;;;;;4897580;29;20033;-74
2022/10/20 04:44:33;;;;;;;5.82;3.92;;;15.70;99.90;;;;;;4897614;29;20099;-75
2022/10/20 04:46:59;;;;;;;5.90;3.75;;;15.70;99.90;;;;;;4878444;29;20473;-75
2022/10/20 04:49:24;;;;;;;8.68;4.10;;;15.70;99.90;;;;;;4878665;29;20029;-74
2022/10/20 04:51:50;;;;;;;4.25;3.53;;;15.70;99.90;;;;;;4895724;29;20042;-74
2022/10/20 04:54:16;;;;;;;4.20;3.80;;;15.70;99.90;;;;;;4893183;29;20028;-74
2022/10/20 04:56:41;;;;;;;7.28;4.38;;;15.70;99.90;;;;;;4895662;29;20016;-74
2022/10/20 04:59:08;;;;;;;8.70;4.50;;;15.70;99.90;;;;;;4895952;29;20452;-74
2022/10/20 05:01:34;;;;;;;7.95;4.15;;;15.70;99.90;;;;;;4896759;29;20367;-74
2022/10/20 05:04:00;;;;;;;9.23;4.55;;;15.70;99.90;;;;;;4897647;29;20025;-74
2022/10/20 05:06:28;;;;;;;5.13;4.03;;;15.70;99.90;;;;;;4896931;29;20372;-74
2022/10/20 05:08:59;;;;;;;7.78;4.43;;;15.60;99.90;;;;;;4880372;29;20502;-74
2022/10/20 05:11:27;;;;;;;6.40;4.47;;;15.70;99.90;;;;;;4897281;29;20033;-74
2022/10/20 05:13:53;;;;;;;7.15;4.93;;;15.60;99.90;;;;;;4897561;29;20261;-74
2022/10/20 05:16:20;;;;;;;4.80;4.28;;;15.70;99.90;;;;;;4880726;29;20028;-74
2022/10/20 05:18:47;;;;;;;5.20;4.60;;;15.60;99.90;;;;;;4897521;29;20040;-74
2022/10/20 05:21:15;;;;;;;12.60;4.53;;;15.70;99.90;;;;;;4879439;29;20029;-76
2022/10/20 05:23:42;;;;;;;5.95;4.80;;;15.70;99.90;;;;;;4878945;29;20394;-76
2022/10/20 05:26:16;;;;;;;8.20;4.50;;;15.60;99.90;;;;;;4895718;29;20020;-76
2022/10/20 05:28:43;;;;;;;10.02;4.68;;;15.60;99.90;;;;;;4896321;29;20056;-76
2022/10/20 05:31:09;;;;;;;6.05;4.45;;;15.60;99.90;;;;;;4879455;29;20033;-76
2022/10/20 05:33:36;;;;;;;6.25;3.67;;;15.60;99.90;;;;;;4896115;29;20480;-77
2022/10/20 05:36:13;;;;;;;7.07;4.10;;;15.60;99.90;;;;;;4898199;29;20475;-76
2022/10/20 05:38:40;;;;;;;7.57;4.32;;;15.60;99.90;;;;;;4899926;29;20476;-76
2022/10/20 05:41:08;;;;;;;10.07;4.57;;;15.50;99.90;;;;;;4897903;29;20025;-76
2022/10/20 05:43:34;;;;;;;7.63;4.15;;;15.50;99.90;;;;;;4898012;29;20595;-76
2022/10/20 05:46:00;;;;;;;7.43;5.15;;;15.50;99.90;;;;;;4882844;29;20031;-76
2022/10/20 05:48:25;;;;;;;5.45;4.70;;;15.60;99.90;;;;;;4883442;29;20067;-76
2022/10/20 05:50:51;;;;;;;7.05;4.60;;;15.60;99.90;;;;;;4900320;29;20100;-76
2022/10/20 05:53:17;;;;;;;8.25;5.25;;;15.60;99.90;;;;;;4900544;29;20476;-76
2022/10/20 05:55:42;;;;;;;5.95;4.88;;;15.60;99.90;;;;;;4900448;29;20035;-77
2022/10/20 05:58:08;;;;;;;7.53;5.00;;;15.60;99.90;;;;;;4883634;29;20039;-76
2022/10/20 06:00:40;;;;;;;11.18;5.03;;;15.60;99.90;;;;;;4900495;29;20028;-76
2022/10/20 06:03:06;;;;;;;;;;;15.60;99.90;;;;;;4883780;29;20041;-76
2022/10/20 06:05:32;;;;;;;7.35;5.18;;;15.70;99.90;;;;;;4900251;29;20000;-76
2022/10/20 06:07:58;;;;;;;9.75;5.55;;;15.70;99.90;;;;;;4900016;29;20181;-76
2022/10/20 06:10:23;;;;;;;9.70;5.22;;;15.70;99.90;;;;;;4899905;29;20056;-77
2022/10/20 06:12:49;;;;;;;9.43;5.15;;;15.70;99.90;;;;;;4900264;29;20032;-77
2022/10/20 06:15:15;;;;;;;8.18;5.82;;;15.80;99.90;;;;;;4900135;29;20036;-77
2022/10/20 06:17:41;;;;;;;10.52;6.20;;;15.80;99.90;;;;;;4883182;29;20395;-77
2022/10/20 06:20:06;;;;;;;11.77;6.68;;;15.80;99.90;;;;;;4899935;29;20498;-76
2022/10/20 06:22:32;;;;;;;17.27;8.30;;;15.90;99.90;;;;;;4899831;29;20111;-77
2022/10/20 06:24:58;;;;;;;16.10;8.75;;;15.90;99.90;;;;;;4882991;29;20033;-77
2022/10/20 06:27:24;;;;;;;17.38;8.57;;;16.00;99.90;;;;;;4899328;29;20126;-76
2022/10/20 06:29:49;;;;;;;15.68;6.65;;;16.00;99.90;;;;;;4899263;29;20032;-77
2022/10/20 06:32:17;;;;;;;9.05;5.97;;;16.10;99.90;;;;;;4899271;29;20024;-77
2022/10/20 06:34:43;;;;;;;8.32;5.68;;;16.10;99.90;;;;;;4899168;29;20487;-76
2022/10/20 06:37:09;;;;;;;7.72;6.45;;;16.20;99.90;;;;;;4899557;29;20024;-76
2022/10/20 06:39:35;;;;;;;9.45;7.70;;;16.20;99.90;;;;;;4899775;29;20550;-75
2022/10/20 06:42:02;;;;;;;9.27;8.27;;;16.40;99.90;;;;;;4882770;29;20033;-74
2022/10/20 06:44:28;;;;;;;17.33;8.00;;;16.70;99.90;;;;;;4882377;29;20039;-76
2022/10/20 06:46:53;;;;;;;8.60;5.88;;;16.80;99.90;;;;;;4898697;29;20024;-76
2022/10/20 06:49:20;;;;;;;9.02;5.85;;;16.70;99.90;;;;;;4899425;29;20028;-76
2022/10/20 06:51:46;;;;;;;7.30;5.88;;;16.70;99.90;;;;;;4896988;29;20025;-74
2022/10/20 06:54:12;;;;;;;13.30;6.70;;;16.60;99.90;;;;;;4879293;29;20373;-74
2022/10/20 06:56:38;;;;;;;13.18;6.90;;;16.60;99.90;;;;;;4896194;29;20115;-74
2022/10/20 06:59:04;;;;;;;7.45;5.47;;;16.60;99.90;;;;;;4896289;29;20089;-74
2022/10/20 07:01:37;;;;;;;9.57;6.85;;;16.70;99.90;;;;;;4895981;29;20395;-74
2022/10/20 07:04:06;;;;;;;11.35;6.45;;;16.70;99.90;;;;;;4896056;29;20031;-74
2022/10/20 07:06:35;;;;;;;10.75;6.68;;;16.70;99.90;;;;;;4880975;29;20043;-74
2022/10/20 07:09:02;;;;;;;11.02;7.03;;;16.70;99.90;;;;;;4897676;29;20199;-74
2022/10/20 07:11:30;;;;;;;7.65;6.65;;;16.80;99.90;;;;;;4880925;29;20036;-74
2022/10/20 07:13:57;;;;;;;14.48;6.88;;;16.80;99.90;;;;;;4881063;29;20044;-74
2022/10/20 07:16:26;;;;;;;11.73;6.35;;;16.80;99.90;;;;;;4897482;29;20024;-74
2022/10/20 07:18:52;;;;;;;12.38;6.60;;;16.90;99.90;;;;;;4897770;29;20112;-74
2022/10/20 07:21:21;;;;;;;11.55;7.13;;;16.90;99.90;;;;;;4880752;29;20040;-74
2022/10/20 07:23:47;;;;;;;9.18;6.85;;;17.00;99.90;;;;;;4897430;29;20025;-74
2022/10/20 07:26:22;;;;;;;12.90;7.40;;;17.10;99.90;;;;;;4897358;29;20081;-74
2022/10/20 07:28:50;;;;;;;13.20;7.95;;;17.10;99.90;;;;;;4897518;29;20118;-74
2022/10/20 07:31:20;;;;;;;12.25;8.07;;;17.20;99.90;;;;;;4897514;29;20031;-74
2022/10/20 07:33:46;;;;;;;12.35;7.50;;;17.30;99.90;;;;;;4897294;29;20056;-74
2022/10/20 07:36:12;;;;;;;8.88;7.28;;;17.30;99.90;;;;;;4897319;29;20471;-74
2022/10/20 07:38:38;;;;;;;13.15;7.65;;;17.40;99.90;;;;;;4897419;29;20387;-74
2022/10/20 07:41:04;;;;;;;14.25;7.63;;;17.40;99.90;;;;;;4897185;29;20036;-74
2022/10/20 07:43:30;;;;;;;12.07;7.90;;;17.60;99.90;;;;;;4897225;29;20028;-74
2022/10/20 07:45:55;;;;;;;17.05;10.40;;;17.60;99.90;;;;;;4897018;29;20501;-74
2022/10/20 07:48:21;;;;;;;22.77;14.07;;;17.70;99.90;;;;;;4897128;29;20064;-74
2022/10/20 07:50:47;;;;;;;26.75;13.98;;;17.80;99.90;;;;;;4897131;29;20025;-74
2022/10/20 07:53:12;;;;;;;24.20;14.45;;;17.90;99.90;;;;;;4896992;29;20112;-74
2022/10/20 07:55:38;;;;;;;30.60;16.30;;;18.00;99.90;;;;;;4896931;29;20029;-74
2022/10/20 07:58:04;;;;;;;36.92;16.83;;;18.10;99.90;;;;;;4896779;29;20070;-74
2022/10/20 08:00:29;;;;;;;28.05;16.90;;;18.20;99.90;;;;;;4897026;29;20061;-74
2022/10/20 08:02:55;;;;;;;36.97;16.75;;;18.20;99.90;;;;;;4896108;29;20033;-74
2022/10/20 08:05:21;;;;;;;30.23;17.30;;;18.30;99.90;;;;;;4879912;29;20036;-74
2022/10/20 08:07:46;;;;;;;30.90;16.60;;;18.30;99.90;;;;;;4896627;29;20503;-74
2022/10/20 08:10:12;;;;;;;31.42;16.52;;;18.30;99.90;;;;;;4896749;29;20187;-74
2022/10/20 08:12:38;;;;;;;31.77;16.42;;;18.30;99.90;;;;;;4896721;29;20480;-74
2022/10/20 08:15:04;;;;;;;24.58;13.80;;;18.30;99.90;;;;;;4896679;29;20119;-74
2022/10/20 08:17:30;;;;;;;28.73;16.25;;;18.40;99.90;;;;;;4896652;29;20028;-74
2022/10/20 08:19:56;;;;;;;27.92;15.15;;;18.40;99.90;;;;;;4896645;29;20052;-74
2022/10/20 08:22:22;;;;;;;31.67;15.55;;;18.40;99.90;;;;;;4896654;29;20035;-74
2022/10/20 08:24:47;;;;;;;41.55;19.27;;;18.40;99.90;;;;;;4896663;29;20506;-74
2022/10/20 08:27:13;;;;;;;37.80;19.65;;;18.40;99.90;;;;;;4896545;29;20060;-74
2022/10/20 08:29:39;;;;;;;39.25;19.92;;;18.40;99.90;;;;;;4896490;29;20548;-74
2022/10/20 08:32:05;;;;;;;34.40;18.20;;;18.40;99.90;;;;;;4879702;29;20041;-74
2022/10/20 08:34:31;;;;;;;33.65;18.65;;;18.40;99.90;;;;;;4896277;29;20030;-74
2022/10/20 08:36:56;;;;;;;39.83;20.02;;;18.50;99.90;;;;;;4896489;29;20462;-74
2022/10/20 08:39:22;;;;;;;36.17;19.17;;;18.50;99.90;;;;;;4896465;29;20072;-74
2022/10/20 08:41:50;;;;;;;34.40;18.67;;;18.50;99.90;;;;;;4896558;29;20547;-74
2022/10/20 08:44:27;;;;;;;31.02;17.40;;;18.60;99.90;;;;;;4896261;29;20036;-74
2022/10/20 08:46:53;;;;;;;35.47;18.08;;;18.60;99.90;;;;;;4896467;29;20107;-74
2022/10/20 08:49:29;;;;;;;27.67;15.73;;;18.70;99.90;;;;;;4896236;29;20049;-74
2022/10/20 08:51:55;;;;;;;33.30;14.68;;;18.70;99.90;;;;;;4879518;29;20049;-74
2022/10/20 08:54:21;;;;;;;35.00;16.10;;;18.80;99.90;;;;;;4896296;29;20169;-74
2022/10/20 08:56:47;;;;;;;21.75;14.18;;;18.90;99.90;;;;;;4896418;29;20036;-74
2022/10/20 08:59:36;;;;;;;22.98;13.75;;;18.90;99.90;;;;;;4896422;29;20043;-74
2022/10/20 09:02:05;;;;;;;20.35;13.02;;;19.00;99.90;;;;;;4896192;29;20052;-74
2022/10/20 09:04:43;;;;;;;27.67;13.45;;;19.10;99.90;;;;;;4896210;29;20379;-74
2022/10/20 09:07:30;;;;;;;22.60;13.50;;;19.10;99.90;;;;;;4896085;29;20419;-74
2022/10/20 09:10:17;;;;;;;22.63;12.13;;;19.10;99.90;;;;;;4895736;29;20088;-74
2022/10/20 09:12:45;;;;;;;20.05;12.30;;;19.10;99.90;;;;;;4899972;29;20108;-74
2022/10/20 09:15:13;;;;;;;26.48;13.80;;;19.10;99.90;;;;;;4900019;29;20021;-74
2022/10/20 09:17:45;;;;;;;22.83;12.93;;;19.10;99.90;;;;;;4899851;29;20032;-74
2022/10/20 09:20:20;;;;;;;19.90;13.32;;;19.20;99.90;;;;;;4899728;29;20090;-74
2022/10/20 09:22:47;;;;;;;20.38;12.45;;;19.20;99.90;;;;;;4899696;29;20091;-74
2022/10/20 09:25:19;;;;;;;20.77;12.77;;;19.20;99.90;;;;;;4899621;29;20020;-74
2022/10/20 09:27:45;;;;;;;22.50;12.85;;;19.10;99.90;;;;;;4899634;29;20514;-74
2022/10/20 09:30:17;;;;;;;23.92;13.45;;;19.10;99.90;;;;;;4899538;29;20027;-74
2022/10/20 09:32:43;;;;;;;27.50;14.05;;;19.10;99.90;;;;;;4882617;29;20511;-74
2022/10/20 09:35:17;;;;;;;19.95;14.15;;;19.10;99.90;;;;;;4882602;29;20059;-74
2022/10/20 09:37:51;;;;;;;28.52;14.43;;;19.10;99.90;;;;;;4899436;29;20040;-74
2022/10/20 09:40:17;;;;;;;18.40;12.32;;;19.10;99.90;;;;;;4899359;29;20036;-74
2022/10/20 09:42:54;;;;;;;23.02;13.63;;;19.20;99.90;;;;;;4899215;29;20035;-74
2022/10/20 09:45:27;;;;;;;25.45;13.32;;;19.20;99.90;;;;;;4899244;29;20080;-74
2022/10/20 09:48:00;;;;;;;20.92;13.05;;;19.20;99.90;;;;;;4899246;29;20025;-74
2022/10/20 09:50:34;;;;;;;20.73;12.98;;;19.20;99.90;;;;;;4899155;29;20496;-74
2022/10/20 09:53:03;;;;;;;17.98;12.35;;;19.30;99.90;;;;;;4899289;29;20518;-74
2022/10/20 09:55:31;;;;;;;21.83;13.07;;;19.40;99.90;;;;;;4899131;29;20084;-74
2022/10/20 09:57:59;;;;;;;26.83;13.75;;;19.50;99.90;;;;;;4899057;29;20107;-74
2022/10/20 10:00:29;;;;;;;23.17;12.95;;;19.50;99.90;;;;;;4899002;29;20494;-74
2022/10/20 10:03:20;;;;;;;22.13;13.73;;;19.50;99.90;;;;;;4882110;29;20041;-74
2022/10/20 10:06:39;;;;;;;26.65;14.73;;;19.60;99.90;;;;;;4882235;29;20031;-74
2022/10/20 10:09:33;;;;;;;24.08;13.52;;;19.60;99.90;;;;;;4853450;29;20058;-74
2022/10/20 10:12:02;;;;;;;20.33;14.00;;;19.70;99.90;;;;;;4841299;29;20093;-74
2022/10/20 10:14:29;;;;;;;22.63;12.43;;;19.70;99.90;;;;;;4861486;29;20416;-74
2022/10/20 10:16:55;;;;;;;23.33;13.00;;;19.80;99.90;;;;;;4861385;29;20400;-74
2022/10/20 10:19:26;;;;;;;23.40;13.88;;;20.00;99.90;;;;;;4861420;29;20037;-74
2022/10/20 10:21:58;;;;;;;17.38;12.85;;;20.10;99.90;;;;;;4861338;29;20117;-74
2022/10/20 10:24:38;;;;;;;19.65;12.52;;;20.10;99.90;;;;;;4861329;29;20022;-74
2022/10/20 10:27:18;;;;;;;20.60;13.05;;;20.10;99.90;;;;;;4861290;29;20104;-74
2022/10/20 10:29:44;;;;;;;22.00;11.85;;;20.30;99.90;;;;;;4861296;29;20022;-74
2022/10/20 10:32:27;;;;;;;18.27;11.57;;;20.20;99.90;;;;;;4861229;29;20025;-74
2022/10/20 10:35:06;;;;;;;17.70;11.32;;;20.20;99.90;;;;;;4861117;29;20033;-74
2022/10/20 10:37:33;;;;;;;20.38;12.68;;;20.30;99.90;;;;;;4861058;29;20049;-74
2022/10/20 10:40:23;;;;;;;17.30;12.13;;;20.30;99.90;;;;;;4861104;29;20056;-74
2022/10/20 10:43:06;;;;;;;20.30;12.48;;;20.30;99.90;;;;;;4860853;29;20034;-74
2022/10/20 10:45:43;;;;;;;17.77;12.05;;;20.30;99.90;;;;;;4861224;29;20030;-74
2022/10/20 10:48:17;;;;;;;13.68;10.35;;;20.30;99.90;;;;;;4860948;29;20100;-74
2022/10/20 10:51:25;;;;;;;16.60;11.20;;;20.30;99.90;;;;;;4859717;29;20094;-74
2022/10/20 10:53:53;;;;;;;22.17;12.43;;;20.40;99.90;;;;;;4860262;29;20037;-74
2022/10/20 10:56:36;;;;;;;22.05;12.88;;;20.40;99.90;;;;;;4860738;29;20404;-74
2022/10/20 10:59:02;;;;;;;15.82;11.95;;;20.40;99.90;;;;;;4860641;29;20396;-74
2022/10/20 11:01:46;;;;;;;15.40;12.40;;;20.40;99.90;;;;;;4860617;29;20029;-74
2022/10/20 11:04:28;;;;;;;13.90;10.90;;;20.40;99.90;;;;;;4860499;29;20448;-74
2022/10/20 11:07:03;;;;;;;16.83;11.88;;;20.50;99.90;;;;;;4868267;29;20415;-74
2022/10/20 11:09:38;;;;;;;14.60;11.48;;;20.50;99.90;;;;;;4879100;29;20441;-74
2022/10/20 11:12:25;;;;;;;20.20;10.80;;;20.60;99.90;;;;;;4879217;29;20029;-74
2022/10/20 11:15:12;;;;;;;18.90;11.48;;;20.60;99.90;;;;;;4886464;29;20100;-74
2022/10/20 11:17:57;;;;;;;17.17;11.23;;;20.60;99.90;;;;;;4897689;29;20112;-74
2022/10/20 11:20:46;;;;;;;18.60;11.13;;;20.70;99.90;;;;;;4897542;29;20025;-74
2022/10/20 11:23:51;;;;;;;17.00;11.27;;;20.80;99.90;;;;;;4897534;29;20068;-74
2022/10/20 11:26:43;;;;;;;17.50;11.30;;;21.00;99.90;;;;;;4889257;29;20096;-74
2022/10/20 11:29:20;;;;;;;16.27;10.82;;;20.90;99.90;;;;;;4897472;29;20031;-74
2022/10/20 11:32:13;;;;;;;17.77;10.60;;;20.90;99.90;;;;;;4897471;29;20072;-74
2022/10/20 11:35:00;;;;;;;15.10;10.15;;;20.90;99.90;;;;;;4896887;29;20043;-74
2022/10/20 11:37:50;;;;;;;16.65;11.50;;;21.00;99.90;;;;;;4880604;29;20127;-74
2022/10/20 11:40:26;;;;;;;15.07;10.40;;;21.00;99.90;;;;;;4897255;29;20103;-74
2022/10/20 11:43:09;;;;;;;17.80;10.85;;;21.10;99.90;;;;;;4897184;29;20101;-74
2022/10/20 11:45:53;;;;;;;17.55;11.00;;;21.10;99.90;;;;;;4897199;29;20039;-74
2022/10/20 11:48:44;;;;;;;13.77;10.15;;;21.10;99.90;;;;;;4880200;29;20065;-74
2022/10/20 11:51:33;;;;;;;14.27;11.02;;;21.20;99.90;;;;;;4897269;29;20028;-74
2022/10/20 11:54:36;;;;;;;16.08;10.82;;;21.10;99.90;;;;;;4896964;29;20246;-74
2022/10/20 11:57:15;;;;;;;13.23;9.98;;;21.10;99.90;;;;;;4897060;29;20028;-74
2022/10/20 12:00:03;;;;;;;13.93;10.13;;;21.10;99.90;;;;;;4896949;29;20032;-74
2022/10/20 12:02:48;;;;;;;15.15;10.05;;;21.20;99.90;;;;;;4874937;29;20033;-74
2022/10/20 12:05:29;;;;;;;16.85;9.75;;;21.20;99.90;;;;;;4895716;29;20284;-74
2022/10/20 12:08:40;;;;;;;12.02;9.77;;;21.20;99.90;;;;;;4896865;29;20052;-74
2022/10/20 12:11:32;;;;;;;14.07;10.73;;;21.20;99.90;;;;;;4892181;29;20033;-74
2022/10/20 12:14:07;;;;;;;16.58;11.05;;;21.20;99.90;;;;;;4879743;29;20040;-74
2022/10/20 12:16:51;;;;;;;13.23;9.73;;;21.20;99.90;;;;;;4896668;29;20036;-74
2022/10/20 12:19:19;;;;;;;12.18;9.80;;;21.30;99.90;;;;;;4896491;29;20169;-74
2022/10/20 12:21:58;;;;;;;15.90;10.68;;;21.30;99.90;;;;;;4896517;29;20506;-74
2022/10/20 12:24:36;;;;;;;16.25;10.75;;;21.40;99.90;;;;;;4896508;29;20032;-74
2022/10/20 12:27:08;;;;;;;19.70;11.35;;;21.40;99.90;;;;;;4896603;29;20476;-74
2022/10/20 12:29:34;;;;;;;17.70;10.70;;;21.40;99.90;;;;;;4896261;29;20271;-74
2022/10/20 12:32:22;;;;;;;15.57;9.65;;;21.40;99.90;;;;;;4896377;29;20058;-74
2022/10/20 12:35:00;;;;;;;11.63;9.63;;;21.50;99.90;;;;;;4879200;29;20419;-74
2022/10/20 12:37:32;;;;;;;14.70;9.57;;;21.40;99.90;;;;;;4896240;29;20033;-74
2022/10/20 12:40:19;;;;;;;13.35;9.18;;;21.50;99.90;;;;;;4896056;29;20395;-74
2022/10/20 12:42:49;;;;;;;10.77;8.73;;;21.40;99.90;;;;;;4896351;29;20031;-74
2022/10/20 12:45:15;;;;;;;12.07;9.13;;;21.40;99.90;;;;;;4879719;29;20033;-74
2022/10/20 12:47:50;;;;;;;13.25;9.20;;;21.40;99.90;;;;;;4900302;29;20584;-74
2022/10/20 12:50:25;;;;;;;13.10;9.88;;;21.40;99.90;;;;;;4883298;29;20392;-74
2022/10/20 12:52:51;;;;;;;14.13;9.25;;;21.40;99.90;;;;;;4900210;29;20494;-74
2022/10/20 12:55:28;;;;;;;12.80;9.55;;;21.40;99.90;;;;;;4900193;29;20020;-74
2022/10/20 12:58:31;;;;;;;12.27;8.23;;;21.40;99.90;;;;;;4900015;29;20033;-74